createdAt,value
2023-05-14T00:02:02.157Z,62.70
2023-05-14T00:04:30.324Z,62.70
2023-05-14T00:06:58.803Z,62.80
2023-05-14T00:09:26.934Z,62.90
2023-05-14T00:11:54.993Z,63.00
2023-05-14T00:14:23.114Z,63.00
2023-05-14T00:16:52.524Z,63.00
2023-05-14T00:19:21.980Z,62.90
2023-05-14T00:21:50.158Z,62.90
2023-05-14T00:24:18.218Z,62.90
2023-05-14T00:26:46.288Z,63.00
2023-05-14T00:29:14.352Z,63.10
2023-05-14T00:31:42.556Z,63.10
2023-05-14T00:34:12.038Z,63.10
2023-05-14T00:36:40.145Z,63.10
2023-05-14T00:39:08.215Z,63.10
2023-05-14T00:41:36.335Z,63.30
2023-05-14T00:44:04.440Z,63.40
2023-05-14T00:46:32.703Z,63.60
2023-05-14T00:49:01.174Z,63.70
2023-05-14T00:51:31.344Z,63.80
2023-05-14T00:53:59.578Z,63.70
2023-05-14T00:56:29.139Z,63.70
2023-05-14T00:58:57.199Z,63.70
2023-05-14T01:01:25.409Z,63.60
2023-05-14T01:03:54.915Z,63.60
2023-05-14T01:06:30.080Z,63.70
2023-05-14T01:09:07.275Z,63.90
2023-05-14T01:11:41.312Z,64.00
2023-05-14T01:14:16.333Z,64.00
2023-05-14T01:16:46.759Z,64.20
2023-05-14T01:19:26.492Z,64.10
2023-05-14T01:21:55.880Z,64.20
2023-05-14T01:24:24.060Z,64.10
2023-05-14T01:26:52.357Z,64.00
2023-05-14T01:29:23.825Z,64.00
2023-05-14T01:31:55.109Z,64.10
2023-05-14T01:34:25.320Z,64.00
2023-05-14T01:36:56.934Z,64.00
2023-05-14T01:39:26.092Z,64.00
2023-05-14T01:41:55.357Z,63.90
2023-05-14T01:44:23.648Z,63.80
2023-05-14T01:46:51.825Z,63.80
2023-05-14T01:49:19.889Z,63.90
2023-05-14T01:51:47.989Z,64.10
2023-05-14T01:54:17.532Z,64.20
2023-05-14T01:56:45.578Z,64.20
2023-05-14T01:59:13.629Z,64.30
2023-05-14T02:01:41.711Z,64.50
2023-05-14T02:04:09.872Z,64.60
2023-05-14T02:06:37.976Z,64.60
2023-05-14T02:09:06.529Z,64.50
2023-05-14T02:11:35.951Z,64.50
2023-05-14T02:14:04.284Z,64.50
2023-05-14T02:16:32.462Z,64.40
2023-05-14T02:19:00.663Z,64.50
2023-05-14T02:21:28.792Z,64.50
2023-05-14T02:23:57.440Z,64.50
2023-05-14T02:26:25.659Z,64.50
2023-05-14T02:28:55.230Z,64.50
2023-05-14T02:31:23.410Z,64.60
2023-05-14T02:33:52.006Z,64.50
2023-05-14T02:36:20.076Z,64.50
2023-05-14T02:38:48.105Z,64.50
2023-05-14T02:41:16.143Z,64.60
2023-05-14T02:43:44.216Z,64.60
2023-05-14T02:46:13.687Z,64.60
2023-05-14T02:48:42.029Z,64.60
2023-05-14T02:51:10.180Z,64.70
2023-05-14T02:53:38.247Z,64.70
2023-05-14T02:56:06.797Z,64.70
2023-05-14T02:58:34.992Z,64.80
2023-05-14T03:01:03.117Z,64.80
2023-05-14T03:03:34.018Z,65.00
2023-05-14T03:06:02.643Z,65.00
2023-05-14T03:08:30.820Z,65.00
2023-05-14T03:10:58.866Z,64.80
2023-05-14T03:13:27.083Z,64.80
2023-05-14T03:15:56.665Z,64.70
2023-05-14T03:18:24.757Z,64.70
2023-05-14T03:20:54.320Z,64.90
2023-05-14T03:23:22.423Z,65.20
2023-05-14T03:25:50.993Z,65.40
2023-05-14T03:28:19.066Z,66.20
2023-05-14T03:30:47.473Z,65.30
2023-05-14T03:33:15.797Z,65.40
2023-05-14T03:35:43.869Z,65.40
2023-05-14T03:38:13.329Z,65.50
2023-05-14T03:40:41.525Z,65.60
2023-05-14T03:43:09.572Z,65.70
2023-05-14T03:45:37.882Z,65.90
2023-05-14T03:48:06.868Z,65.90
2023-05-14T03:50:34.988Z,65.90
2023-05-14T03:53:03.055Z,65.70
2023-05-14T03:55:32.462Z,65.60
2023-05-14T03:58:00.582Z,65.60
2023-05-14T04:00:28.629Z,65.70
2023-05-14T04:02:56.861Z,65.80
2023-05-14T04:05:25.045Z,65.90
2023-05-14T04:07:53.567Z,66.00
2023-05-14T04:10:21.858Z,66.30
2023-05-14T04:12:51.470Z,66.20
2023-05-14T04:15:19.513Z,66.40
2023-05-14T04:17:47.568Z,66.40
2023-05-14T04:20:15.659Z,66.60
2023-05-14T04:22:43.742Z,66.50
2023-05-14T04:25:11.856Z,66.60
2023-05-14T04:27:39.957Z,66.60
2023-05-14T04:30:11.225Z,66.60
2023-05-14T04:32:39.445Z,66.80
2023-05-14T04:35:09.171Z,66.80
2023-05-14T04:37:37.299Z,67.00
2023-05-14T04:40:08.059Z,67.10
2023-05-14T04:42:36.150Z,67.20
2023-05-14T04:45:05.217Z,67.30
2023-05-14T04:47:34.900Z,67.40
2023-05-14T04:50:03.177Z,67.50
2023-05-14T04:52:31.267Z,67.40
2023-05-14T04:54:59.323Z,67.40
2023-05-14T04:57:27.838Z,67.40
2023-05-14T04:59:55.931Z,67.40
2023-05-14T05:02:24.046Z,67.40
2023-05-14T05:04:53.470Z,67.40
2023-05-14T05:07:21.544Z,67.40
2023-05-14T05:09:49.845Z,67.30
2023-05-14T05:12:17.951Z,67.30
2023-05-14T05:14:45.984Z,67.40
2023-05-14T05:17:14.162Z,67.40
2023-05-14T05:19:44.138Z,67.50
2023-05-14T05:22:14.025Z,67.40
2023-05-14T05:24:42.139Z,67.40
2023-05-14T05:27:10.208Z,67.40
2023-05-14T05:29:38.359Z,67.20
2023-05-14T05:32:07.511Z,67.10
2023-05-14T05:34:36.645Z,67.10
2023-05-14T05:37:05.962Z,67.10
2023-05-14T05:39:35.741Z,67.00
2023-05-14T05:42:04.108Z,67.00
2023-05-14T05:44:32.161Z,66.90
2023-05-14T05:47:00.297Z,66.80
2023-05-14T05:49:28.407Z,66.80
2023-05-14T05:51:56.503Z,66.90
2023-05-14T05:54:25.812Z,67.00
2023-05-14T05:56:56.453Z,67.10
2023-05-14T05:59:24.539Z,67.50
2023-05-14T06:01:52.715Z,67.70
2023-05-14T06:04:20.830Z,67.70
2023-05-14T06:06:48.884Z,67.50
2023-05-14T06:09:17.120Z,67.40
2023-05-14T06:11:45.157Z,67.20
2023-05-14T06:14:14.549Z,67.20
2023-05-14T06:16:42.630Z,67.20
2023-05-14T06:19:11.145Z,67.80
2023-05-14T06:21:39.408Z,67.00
2023-05-14T06:24:08.145Z,67.00
2023-05-14T06:26:36.233Z,66.90
2023-05-14T06:29:04.371Z,67.00
2023-05-14T06:31:33.905Z,67.00
2023-05-14T06:34:01.953Z,66.80
2023-05-14T06:36:30.003Z,66.60
2023-05-14T06:38:58.092Z,66.40
2023-05-14T06:41:26.187Z,66.10
2023-05-14T06:43:55.252Z,66.00
2023-05-14T06:46:23.413Z,66.20
2023-05-14T06:48:52.996Z,66.40
2023-05-14T06:51:21.135Z,66.50
2023-05-14T06:53:49.511Z,66.10
2023-05-14T06:56:17.595Z,65.70
2023-05-14T06:58:45.674Z,65.50
2023-05-14T07:01:13.777Z,64.70
2023-05-14T07:03:41.882Z,64.60
2023-05-14T07:06:13.073Z,64.80
2023-05-14T07:08:41.914Z,64.40
2023-05-14T07:11:10.063Z,63.90
2023-05-14T07:13:38.104Z,63.70
2023-05-14T07:16:07.147Z,62.90
2023-05-14T07:18:35.320Z,62.70
2023-05-14T07:21:04.988Z,62.70
2023-05-14T07:23:36.257Z,62.70
2023-05-14T07:26:04.597Z,62.20
2023-05-14T07:28:32.904Z,62.30
2023-05-14T07:31:01.367Z,61.90
2023-05-14T07:33:29.543Z,62.00
2023-05-14T07:35:57.643Z,61.60
2023-05-14T07:38:25.753Z,61.00
2023-05-14T07:40:55.147Z,60.50
2023-05-14T07:43:23.221Z,59.80
2023-05-14T07:45:51.302Z,59.40
2023-05-14T07:48:19.405Z,59.60
2023-05-14T07:50:47.554Z,59.20
2023-05-14T07:53:15.678Z,58.80
2023-05-14T07:55:44.774Z,58.00
2023-05-14T07:58:14.200Z,58.20
2023-05-14T08:00:42.224Z,58.20
2023-05-14T08:03:10.398Z,58.10
2023-05-14T08:05:38.609Z,57.50
2023-05-14T08:08:06.711Z,57.80
2023-05-14T08:10:34.872Z,57.20
2023-05-14T08:13:03.050Z,56.60
2023-05-14T08:15:32.449Z,56.50
2023-05-14T08:18:03.682Z,55.90
2023-05-14T08:20:31.932Z,55.90
2023-05-14T08:22:59.981Z,55.70
2023-05-14T08:25:28.109Z,55.00
2023-05-14T08:27:56.213Z,55.00
2023-05-14T08:30:24.593Z,55.00
2023-05-14T08:32:54.309Z,54.80
2023-05-14T08:35:22.572Z,54.90
2023-05-14T08:37:51.524Z,54.40
2023-05-14T08:40:19.938Z,54.60
2023-05-14T08:42:49.592Z,54.50
2023-05-14T08:45:20.461Z,53.90
2023-05-14T08:47:50.622Z,53.40
2023-05-14T08:50:22.986Z,53.30
2023-05-14T08:52:52.055Z,52.90
2023-05-14T08:55:20.978Z,52.80
2023-05-14T08:57:49.110Z,52.70
2023-05-14T09:00:18.625Z,52.10
2023-05-14T09:02:48.812Z,52.20
2023-05-14T09:05:20.411Z,51.20
2023-05-14T09:07:48.589Z,51.50
2023-05-14T09:10:17.379Z,51.70
2023-05-14T09:12:45.583Z,51.50
2023-05-14T09:15:14.022Z,51.20
2023-05-14T09:17:42.245Z,51.50
2023-05-14T09:20:13.455Z,51.70
2023-05-14T09:22:43.546Z,51.80
2023-05-14T09:25:13.059Z,51.80
2023-05-14T09:27:41.202Z,51.80
2023-05-14T09:30:11.284Z,51.70
2023-05-14T09:32:45.883Z,51.50
2023-05-14T09:35:17.821Z,50.90
2023-05-14T09:37:49.281Z,51.10
2023-05-14T09:40:19.285Z,50.90
2023-05-14T09:42:48.217Z,51.00
2023-05-14T09:45:17.089Z,51.30
2023-05-14T09:47:46.141Z,51.00
2023-05-14T09:50:14.482Z,51.20
2023-05-14T09:52:42.563Z,52.00
2023-05-14T09:55:12.136Z,51.00
2023-05-14T09:57:40.761Z,50.60
2023-05-14T10:00:10.344Z,50.60
2023-05-14T10:02:41.108Z,51.10
2023-05-14T10:05:09.887Z,50.50
2023-05-14T10:07:42.113Z,50.90
2023-05-14T10:10:17.316Z,51.10
2023-05-14T10:12:51.645Z,51.10
2023-05-14T10:15:24.231Z,51.30
2023-05-14T10:17:57.694Z,50.70
2023-05-14T10:20:27.679Z,50.80
2023-05-14T10:22:56.473Z,50.40
2023-05-14T10:25:26.413Z,50.60
2023-05-14T10:27:55.144Z,50.30
2023-05-14T10:30:24.095Z,50.50
2023-05-14T10:33:07.894Z,50.50
2023-05-14T10:35:56.586Z,50.50
2023-05-14T10:38:27.174Z,49.90
2023-05-14T10:41:00.396Z,50.00
2023-05-14T10:43:30.817Z,49.60
2023-05-14T10:45:59.661Z,49.80
2023-05-14T10:48:27.968Z,50.00
2023-05-14T10:50:57.935Z,49.70
2023-05-14T10:53:34.220Z,49.80
2023-05-14T10:56:07.164Z,49.90
2023-05-14T10:58:38.422Z,49.60
2023-05-14T11:01:08.407Z,49.70
2023-05-14T11:03:42.257Z,49.60
2023-05-14T11:06:11.891Z,49.60
2023-05-14T11:08:41.015Z,49.80
2023-05-14T11:11:11.709Z,50.00
2023-05-14T11:13:40.740Z,49.20
2023-05-14T11:18:41.959Z,49.20
2023-05-14T11:21:10.326Z,48.10
2023-05-14T11:23:38.575Z,48.40
2023-05-14T11:26:06.792Z,48.70
2023-05-14T11:28:36.450Z,48.60
2023-05-14T11:31:05.671Z,48.50
2023-05-14T11:33:33.842Z,49.30
2023-05-14T11:36:01.887Z,49.00
2023-05-14T11:38:29.919Z,48.90
2023-05-14T11:41:00.456Z,49.00
2023-05-14T11:43:29.480Z,48.60
2023-05-14T11:45:59.054Z,48.60
2023-05-14T11:48:27.252Z,48.50
2023-05-14T11:50:55.435Z,48.30
2023-05-14T11:53:28.109Z,48.20
2023-05-14T11:55:57.811Z,47.40
2023-05-14T11:58:26.067Z,47.30
2023-05-14T12:00:56.630Z,47.50
2023-05-14T12:03:26.865Z,47.40
2023-05-14T12:05:59.204Z,47.30
2023-05-14T12:08:29.301Z,47.00
2023-05-14T12:10:59.390Z,47.00
2023-05-14T12:13:28.192Z,47.10
2023-05-14T12:15:57.622Z,47.00
2023-05-14T12:18:29.032Z,46.80
2023-05-14T12:20:57.487Z,46.60
2023-05-14T12:23:30.722Z,47.30
2023-05-14T12:26:03.928Z,47.40
2023-05-14T12:28:32.469Z,47.90
2023-05-14T12:31:01.375Z,48.30
2023-05-14T12:33:30.785Z,47.70
2023-05-14T12:36:10.019Z,47.50
2023-05-14T12:38:48.314Z,47.60
2023-05-14T12:41:16.415Z,47.40
2023-05-14T12:43:45.473Z,47.10
2023-05-14T12:46:13.509Z,47.20
2023-05-14T12:48:42.934Z,47.30
2023-05-14T12:51:10.990Z,47.40
2023-05-14T12:53:39.223Z,47.70
2023-05-14T12:56:08.080Z,48.10
2023-05-14T12:58:36.159Z,48.10
2023-05-14T13:01:04.459Z,47.80
2023-05-14T13:03:33.009Z,50.10
2023-05-14T13:06:02.491Z,52.40
2023-05-14T13:08:30.559Z,53.70
2023-05-14T13:10:58.590Z,51.50
2023-05-14T13:13:26.696Z,51.40
2023-05-14T13:15:55.586Z,51.90
2023-05-14T13:18:23.707Z,51.60
2023-05-14T13:20:51.841Z,54.00
2023-05-14T13:23:21.290Z,55.40
2023-05-14T13:25:50.052Z,56.00
2023-05-14T13:28:18.245Z,55.90
2023-05-14T13:31:05.426Z,56.50
2023-05-14T13:33:34.425Z,57.50
2023-05-14T13:36:02.725Z,57.70
2023-05-14T13:38:32.135Z,58.80
2023-05-14T13:41:02.726Z,59.00
2023-05-14T13:43:31.477Z,59.70
2023-05-14T13:46:00.063Z,61.60
2023-05-14T13:48:28.792Z,62.90
2023-05-14T13:50:56.884Z,61.90
2023-05-14T13:53:26.041Z,61.30
2023-05-14T13:56:00.196Z,61.00
2023-05-14T13:58:29.016Z,62.30
2023-05-14T14:00:57.407Z,60.00
2023-05-14T14:03:25.468Z,59.50
2023-05-14T14:05:53.521Z,58.60
2023-05-14T14:08:24.061Z,59.00
2023-05-14T14:10:54.457Z,57.60
2023-05-14T14:13:24.481Z,56.60
2023-05-14T14:15:52.993Z,56.40
2023-05-14T14:18:21.139Z,56.40
2023-05-14T14:20:49.395Z,56.90
2023-05-14T14:23:17.480Z,57.50
2023-05-14T14:25:45.524Z,58.00
2023-05-14T14:28:13.652Z,58.90
2023-05-14T14:30:43.803Z,59.20
2023-05-14T14:33:12.372Z,61.40
2023-05-14T14:35:40.501Z,62.10
2023-05-14T14:38:08.551Z,61.90
2023-05-14T14:40:36.795Z,62.60
2023-05-14T14:43:04.849Z,63.70
2023-05-14T14:45:32.927Z,63.70
2023-05-14T14:48:25.090Z,64.50
2023-05-14T14:50:53.017Z,65.50
2023-05-14T14:53:21.214Z,63.20
2023-05-14T14:55:49.368Z,63.00
2023-05-14T14:58:17.503Z,63.60
2023-05-14T15:00:45.686Z,63.60
2023-05-14T15:03:15.096Z,64.20
2023-05-14T15:05:44.694Z,64.50
2023-05-14T15:08:12.833Z,65.60
2023-05-14T15:10:41.695Z,63.90
2023-05-14T15:13:11.279Z,63.60
2023-05-14T15:15:39.378Z,64.30
2023-05-14T15:18:07.557Z,65.60
2023-05-14T15:20:35.621Z,67.20
2023-05-14T15:23:05.129Z,67.00
2023-05-14T15:25:33.210Z,67.60
2023-05-14T15:28:01.393Z,68.60
2023-05-14T15:30:29.499Z,68.50
2023-05-14T15:32:57.915Z,68.90
2023-05-14T15:35:26.239Z,69.10
2023-05-14T15:37:57.300Z,68.60
2023-05-14T15:40:28.809Z,68.90
2023-05-14T15:42:56.854Z,69.60
2023-05-14T15:45:24.954Z,68.80
2023-05-14T15:47:53.055Z,68.80
2023-05-14T15:50:22.884Z,69.20
2023-05-14T15:52:51.282Z,69.40
2023-05-14T15:55:19.482Z,69.10
2023-05-14T15:57:48.905Z,68.50
2023-05-14T16:00:17.658Z,68.50
2023-05-14T16:02:45.797Z,68.30
2023-05-14T16:05:15.315Z,68.00
2023-05-14T16:07:44.003Z,67.50
2023-05-14T16:10:12.436Z,68.40
2023-05-14T16:12:40.562Z,69.10
2023-05-14T16:15:11.125Z,69.80
2023-05-14T16:17:39.379Z,70.90
2023-05-14T16:20:08.528Z,70.40
2023-05-14T16:22:36.636Z,69.70
2023-05-14T16:25:05.933Z,69.40
2023-05-14T16:27:34.105Z,69.40
2023-05-14T16:30:02.279Z,69.40
2023-05-14T16:32:31.694Z,69.50
2023-05-14T16:35:01.770Z,69.10
2023-05-14T16:37:29.832Z,68.90
2023-05-14T16:39:57.889Z,68.90
2023-05-14T16:42:26.248Z,69.00
2023-05-14T16:44:54.311Z,68.90
2023-05-14T16:47:22.339Z,69.50
2023-05-14T16:49:51.910Z,69.40
2023-05-14T16:52:20.016Z,69.70
2023-05-14T16:54:48.087Z,70.00
2023-05-14T16:57:16.184Z,69.60
2023-05-14T16:59:44.277Z,69.40
2023-05-14T17:02:12.338Z,69.30
2023-05-14T17:04:42.210Z,69.30
2023-05-14T17:07:11.907Z,69.60
2023-05-14T17:09:39.985Z,68.60
2023-05-14T17:12:09.582Z,68.30
2023-05-14T17:14:37.625Z,68.30
2023-05-14T17:17:06.104Z,68.20
2023-05-14T17:19:34.297Z,68.30
2023-05-14T17:22:05.699Z,68.60
2023-05-14T17:24:35.478Z,68.80
2023-05-14T17:27:03.516Z,69.10
2023-05-14T17:29:31.546Z,68.90
2023-05-14T17:31:59.991Z,68.60
2023-05-14T17:34:28.135Z,68.90
2023-05-14T17:36:56.202Z,68.90
2023-05-14T17:39:24.221Z,68.90
2023-05-14T17:41:53.660Z,68.70
2023-05-14T17:44:21.685Z,67.60
2023-05-14T17:46:50.388Z,67.70
2023-05-14T17:49:18.500Z,67.50
2023-05-14T17:51:46.569Z,67.50
2023-05-14T17:54:14.642Z,67.80
2023-05-14T17:56:42.812Z,67.50
2023-05-14T17:59:12.861Z,67.60
2023-05-14T18:01:41.260Z,68.40
2023-05-14T18:04:09.563Z,68.70
2023-05-14T18:06:37.847Z,69.20
2023-05-14T18:09:06.096Z,69.20
2023-05-14T18:11:34.202Z,69.50
2023-05-14T18:14:02.765Z,69.70
2023-05-14T18:16:32.404Z,69.80
2023-05-14T18:19:01.310Z,69.60
2023-05-14T18:21:29.442Z,69.10
2023-05-14T18:23:57.510Z,68.60
2023-05-14T18:26:26.634Z,68.70
2023-05-14T18:28:54.796Z,68.30
2023-05-14T18:31:22.993Z,68.40
2023-05-14T18:33:52.482Z,68.30
2023-05-14T18:36:20.770Z,68.70
2023-05-14T18:38:48.821Z,68.80
2023-05-14T18:41:16.882Z,68.50
2023-05-14T18:43:44.946Z,69.60
2023-05-14T18:46:13.047Z,68.50
2023-05-14T18:48:41.346Z,68.40
2023-05-14T18:51:11.323Z,68.00
2023-05-14T18:53:39.468Z,68.80
2023-05-14T18:56:07.584Z,69.10
2023-05-14T18:58:35.636Z,68.80
2023-05-14T19:01:03.737Z,69.00
2023-05-14T19:03:31.880Z,69.60
2023-05-14T19:06:00.138Z,68.50
2023-05-14T19:08:29.787Z,68.20
2023-05-14T19:10:57.905Z,68.50
2023-05-14T19:13:28.558Z,68.30
2023-05-14T19:15:57.013Z,69.00
2023-05-14T19:18:25.130Z,69.10
2023-05-14T19:20:53.208Z,69.20
2023-05-14T19:23:21.322Z,69.60
2023-05-14T19:25:50.795Z,70.00
2023-05-14T19:28:19.903Z,70.40
2023-05-14T19:30:48.011Z,69.90
2023-05-14T19:33:16.232Z,69.60
2023-05-14T19:35:44.513Z,70.00
2023-05-14T19:38:12.579Z,69.90
2023-05-14T19:40:42.459Z,69.90
2023-05-14T19:43:12.442Z,70.50
2023-05-14T19:45:42.608Z,70.40
2023-05-14T19:48:12.451Z,70.20
2023-05-14T19:50:41.452Z,70.10
2023-05-14T19:53:09.651Z,70.20
2023-05-14T19:55:37.831Z,70.20
2023-05-14T19:58:06.068Z,70.00
2023-05-14T20:00:36.943Z,70.00
2023-05-14T20:03:05.795Z,70.80
2023-05-14T20:05:36.235Z,70.60
2023-05-14T20:08:06.575Z,70.40
2023-05-14T20:10:34.691Z,70.20
2023-05-14T20:13:03.225Z,70.30
2023-05-14T20:15:31.388Z,70.50
2023-05-14T20:18:01.017Z,70.50
2023-05-14T20:20:32.143Z,70.80
2023-05-14T20:23:01.358Z,70.90
2023-05-14T20:25:29.561Z,70.90
2023-05-14T20:27:57.809Z,71.10
2023-05-14T20:30:25.985Z,70.80
2023-05-14T20:32:54.334Z,70.90
2023-05-14T20:35:24.054Z,71.10
2023-05-14T20:37:52.461Z,71.40
2023-05-14T20:40:21.427Z,71.30
2023-05-14T20:42:50.692Z,71.30
2023-05-14T20:45:18.890Z,71.50
2023-05-14T20:47:46.970Z,71.60
2023-05-14T20:50:15.114Z,71.70
2023-05-14T20:52:44.664Z,71.70
2023-05-14T20:55:13.330Z,71.90
2023-05-14T20:57:43.479Z,71.80
2023-05-14T21:00:13.244Z,71.80
2023-05-14T21:02:41.558Z,72.10
2023-05-14T21:05:10.134Z,72.10
2023-05-14T21:07:39.346Z,72.20
2023-05-14T21:10:09.999Z,72.30
2023-05-14T21:12:38.134Z,72.50
2023-05-14T21:15:06.925Z,72.50
2023-05-14T21:17:35.102Z,72.60
2023-05-14T21:20:06.279Z,72.60
2023-05-14T21:22:34.394Z,72.70
2023-05-14T21:25:02.468Z,72.80
2023-05-14T21:27:32.007Z,72.90
2023-05-14T21:30:00.062Z,73.00
2023-05-14T21:32:28.290Z,73.00
2023-05-14T21:34:56.345Z,73.20
2023-05-14T21:37:24.478Z,73.20
2023-05-14T21:39:52.571Z,73.20
2023-05-14T21:42:21.100Z,73.50
2023-05-14T21:44:50.624Z,73.60
2023-05-14T21:47:19.879Z,73.60
2023-05-14T21:49:47.987Z,73.80
2023-05-14T21:52:16.303Z,73.70
2023-05-14T21:54:44.376Z,73.70
2023-05-14T21:57:12.441Z,73.60
2023-05-14T21:59:40.532Z,73.50
2023-05-14T22:02:09.965Z,73.60
2023-05-14T22:04:38.020Z,73.40
2023-05-14T22:07:06.310Z,73.30
2023-05-14T22:09:34.373Z,73.30
2023-05-14T22:12:02.409Z,73.40
2023-05-14T22:14:30.475Z,73.20
2023-05-14T22:16:58.787Z,73.40
2023-05-14T22:19:28.406Z,73.10
2023-05-14T22:21:56.465Z,73.10
2023-05-14T22:24:24.600Z,72.90
2023-05-14T22:26:52.705Z,72.70
2023-05-14T22:29:20.761Z,72.80
2023-05-14T22:31:48.967Z,72.80
2023-05-14T22:34:17.185Z,73.10
2023-05-14T22:36:46.655Z,73.10
2023-05-14T22:39:14.706Z,73.20
2023-05-14T22:41:42.732Z,73.10
2023-05-14T22:44:10.794Z,73.20
2023-05-14T22:46:38.910Z,73.20
2023-05-14T22:49:06.961Z,73.20
2023-05-14T22:51:35.008Z,73.10
2023-05-14T22:54:04.561Z,73.00
2023-05-14T22:56:32.783Z,73.20
2023-05-14T22:59:01.272Z,73.40
2023-05-14T23:01:29.641Z,73.50
2023-05-14T23:03:57.858Z,73.30
2023-05-14T23:06:26.448Z,73.20
2023-05-14T23:08:54.486Z,73.20
2023-05-14T23:11:23.949Z,73.20
2023-05-14T23:13:52.003Z,73.60
2023-05-14T23:16:20.503Z,73.60
2023-05-14T23:18:48.677Z,73.50
2023-05-14T23:21:16.800Z,73.40
2023-05-14T23:23:45.518Z,73.50
2023-05-14T23:26:13.624Z,73.50
2023-05-14T23:28:43.051Z,73.50
2023-05-14T23:31:11.348Z,73.50
2023-05-14T23:33:39.867Z,73.70
2023-05-14T23:36:08.938Z,73.60
2023-05-14T23:38:37.081Z,73.50
2023-05-14T23:41:05.278Z,73.30
2023-05-14T23:43:33.836Z,73.30
2023-05-14T23:46:04.000Z,73.30
2023-05-14T23:48:32.556Z,73.60
2023-05-14T23:51:00.571Z,73.50
2023-05-14T23:53:28.615Z,73.50
2023-05-14T23:55:56.681Z,73.60
2023-05-14T23:58:24.879Z,73.30
